createdAt,value
2022-09-17T00:01:41.830Z,100.00
2022-09-17T00:04:17.832Z,100.00
2022-09-17T00:06:49.680Z,100.00
2022-09-17T00:09:18.149Z,100.00
2022-09-17T00:11:49.414Z,100.00
2022-09-17T00:14:19.293Z,100.00
2022-09-17T00:16:50.138Z,100.00
2022-09-17T00:19:21.367Z,100.00
2022-09-17T00:21:50.189Z,100.00
2022-09-17T00:24:19.640Z,100.00
2022-09-17T00:26:48.177Z,100.00
2022-09-17T00:29:17.786Z,100.00
2022-09-17T00:31:45.964Z,100.00
2022-09-17T00:34:14.319Z,100.00
2022-09-17T00:36:42.770Z,100.00
2022-09-17T00:39:15.554Z,100.00
2022-09-17T00:41:44.925Z,100.00
2022-09-17T00:44:46.045Z,100.00
2022-09-17T00:47:22.293Z,100.00
2022-09-17T00:49:53.881Z,100.00
2022-09-17T00:52:28.048Z,100.00
2022-09-17T00:55:05.748Z,100.00
2022-09-17T00:57:34.111Z,100.00
2022-09-17T01:00:06.046Z,100.00
2022-09-17T01:02:34.291Z,100.00
2022-09-17T01:05:02.538Z,100.00
2022-09-17T01:07:49.634Z,100.00
2022-09-17T01:10:35.532Z,100.00
2022-09-17T01:13:17.863Z,100.00
2022-09-17T01:15:56.002Z,100.00
2022-09-17T01:18:40.030Z,100.00
2022-09-17T01:21:48.117Z,100.00
2022-09-17T01:24:47.328Z,100.00
2022-09-17T01:28:29.217Z,100.00
2022-09-17T01:31:13.195Z,100.00
2022-09-17T01:33:49.622Z,100.00
2022-09-17T01:36:32.856Z,100.00
2022-09-17T01:39:09.959Z,100.00
2022-09-17T01:41:44.950Z,100.00
2022-09-17T01:44:19.673Z,100.00
2022-09-17T01:46:54.863Z,100.00
2022-09-17T01:49:25.927Z,100.00
2022-09-17T01:51:55.817Z,100.00
2022-09-17T01:54:29.010Z,100.00
2022-09-17T01:57:02.667Z,100.00
2022-09-17T01:59:34.853Z,100.00
2022-09-17T02:02:12.335Z,100.00
2022-09-17T02:04:48.075Z,100.00
2022-09-17T02:07:21.613Z,100.00
2022-09-17T02:10:01.278Z,100.00
2022-09-17T02:12:36.766Z,100.00
2022-09-17T02:15:11.339Z,100.00
2022-09-17T02:17:49.477Z,100.00
2022-09-17T02:20:22.847Z,100.00
2022-09-17T02:22:58.285Z,100.00
2022-09-17T02:25:34.784Z,100.00
2022-09-17T02:28:08.582Z,100.00
2022-09-17T02:30:36.909Z,100.00
2022-09-17T02:33:10.255Z,100.00
2022-09-17T02:35:39.123Z,100.00
2022-09-17T02:38:08.297Z,100.00
2022-09-17T02:40:42.551Z,100.00
2022-09-17T02:43:23.594Z,100.00
2022-09-17T02:46:10.008Z,100.00
2022-09-17T02:49:22.273Z,100.00
2022-09-17T02:51:59.833Z,100.00
2022-09-17T02:54:32.251Z,100.00
2022-09-17T02:57:14.394Z,100.00
2022-09-17T02:59:50.765Z,100.00
2022-09-17T03:02:27.422Z,100.00
2022-09-17T03:04:58.500Z,100.00
2022-09-17T03:07:29.180Z,100.00
2022-09-17T03:09:58.012Z,100.00
2022-09-17T03:12:26.862Z,100.00
2022-09-17T03:14:55.055Z,100.00
2022-09-17T03:17:23.269Z,100.00
2022-09-17T03:19:51.578Z,100.00
2022-09-17T03:22:21.089Z,100.00
2022-09-17T03:24:49.368Z,100.00
2022-09-17T03:27:17.538Z,100.00
2022-09-17T03:29:45.784Z,100.00
2022-09-17T03:32:13.984Z,100.00
2022-09-17T03:34:42.292Z,100.00
2022-09-17T03:37:10.919Z,100.00
2022-09-17T03:39:40.472Z,100.00
2022-09-17T03:42:08.819Z,100.00
2022-09-17T03:44:37.217Z,100.00
2022-09-17T03:47:05.877Z,100.00
2022-09-17T03:49:34.108Z,100.00
2022-09-17T03:52:03.160Z,100.00
2022-09-17T03:54:31.383Z,100.00
2022-09-17T03:57:00.940Z,100.00
2022-09-17T03:59:29.848Z,100.00
2022-09-17T04:02:22.177Z,100.00
2022-09-17T04:04:50.502Z,100.00
2022-09-17T04:07:18.694Z,100.00
2022-09-17T04:09:46.873Z,100.00
2022-09-17T04:12:16.509Z,100.00
2022-09-17T04:14:44.752Z,100.00
2022-09-17T04:17:18.064Z,100.00
2022-09-17T04:19:46.280Z,100.00
2022-09-17T04:22:14.449Z,100.00
2022-09-17T04:24:42.735Z,100.00
2022-09-17T04:27:10.855Z,100.00
2022-09-17T04:29:40.317Z,100.00
2022-09-17T04:32:08.832Z,100.00
2022-09-17T04:34:37.040Z,100.00
2022-09-17T04:37:05.333Z,100.00
2022-09-17T04:39:33.510Z,100.00
2022-09-17T04:42:02.327Z,100.00
2022-09-17T04:44:30.560Z,100.00
2022-09-17T04:47:00.119Z,100.00
2022-09-17T04:49:29.842Z,100.00
2022-09-17T04:51:58.091Z,100.00
2022-09-17T04:54:26.319Z,100.00
2022-09-17T04:56:54.482Z,100.00
2022-09-17T04:59:22.783Z,100.00
2022-09-17T05:01:51.499Z,100.00
2022-09-17T05:04:21.111Z,100.00
2022-09-17T05:06:49.328Z,100.00
2022-09-17T05:09:17.661Z,100.00
2022-09-17T05:11:46.043Z,100.00
2022-09-17T05:14:14.468Z,100.00
2022-09-17T05:16:42.750Z,100.00
2022-09-17T05:19:10.947Z,100.00
2022-09-17T05:21:40.535Z,100.00
2022-09-17T05:24:08.864Z,100.00
2022-09-17T05:26:37.046Z,100.00
2022-09-17T05:29:05.544Z,100.00
2022-09-17T05:31:33.848Z,100.00
2022-09-17T05:34:02.131Z,100.00
2022-09-17T05:36:30.575Z,100.00
2022-09-17T05:39:01.083Z,100.00
2022-09-17T05:41:29.249Z,100.00
2022-09-17T05:43:57.501Z,100.00
2022-09-17T05:46:25.700Z,100.00
2022-09-17T05:48:57.075Z,100.00
2022-09-17T05:51:25.804Z,100.00
2022-09-17T05:53:56.061Z,100.00
2022-09-17T05:56:25.664Z,100.00
2022-09-17T05:58:57.120Z,100.00
2022-09-17T06:01:51.689Z,100.00
2022-09-17T06:04:22.263Z,100.00
2022-09-17T06:06:50.722Z,100.00
2022-09-17T06:09:19.078Z,100.00
2022-09-17T06:11:49.086Z,100.00
2022-09-17T06:14:17.425Z,100.00
2022-09-17T06:16:45.733Z,100.00
2022-09-17T06:19:14.046Z,100.00
2022-09-17T06:21:42.249Z,100.00
2022-09-17T06:24:11.581Z,100.00
2022-09-17T06:26:39.917Z,100.00
2022-09-17T06:29:09.444Z,100.00
2022-09-17T06:31:37.795Z,100.00
2022-09-17T06:34:06.335Z,100.00
2022-09-17T06:36:34.504Z,100.00
2022-09-17T06:39:02.843Z,100.00
2022-09-17T06:41:31.041Z,100.00
2022-09-17T06:43:59.677Z,100.00
2022-09-17T06:46:29.361Z,100.00
2022-09-17T06:48:57.944Z,100.00
2022-09-17T06:51:26.135Z,100.00
2022-09-17T06:53:54.331Z,100.00
2022-09-17T06:56:22.929Z,100.00
2022-09-17T06:58:51.107Z,100.00
2022-09-17T07:01:19.478Z,100.00
2022-09-17T07:03:49.812Z,100.00
2022-09-17T07:06:17.969Z,100.00
2022-09-17T07:08:47.131Z,100.00
2022-09-17T07:11:16.624Z,100.00
2022-09-17T07:13:44.914Z,100.00
2022-09-17T07:16:14.454Z,100.00
2022-09-17T07:18:42.985Z,100.00
2022-09-17T07:21:12.565Z,100.00
2022-09-17T07:23:40.801Z,100.00
2022-09-17T07:26:13.931Z,100.00
2022-09-17T07:28:43.754Z,100.00
2022-09-17T07:31:16.416Z,100.00
2022-09-17T07:33:46.226Z,100.00
2022-09-17T07:36:18.714Z,100.00
2022-09-17T07:38:47.164Z,100.00
2022-09-17T07:41:17.587Z,100.00
2022-09-17T07:43:46.457Z,100.00
2022-09-17T07:46:17.407Z,100.00
2022-09-17T07:48:46.428Z,100.00
2022-09-17T07:51:19.422Z,100.00
2022-09-17T07:53:48.853Z,100.00
2022-09-17T07:56:17.201Z,100.00
2022-09-17T07:58:45.415Z,100.00
2022-09-17T08:01:16.645Z,100.00
2022-09-17T08:03:54.428Z,100.00
2022-09-17T08:06:29.104Z,100.00
2022-09-17T08:08:58.573Z,100.00
2022-09-17T08:14:17.299Z,100.00
2022-09-17T08:16:47.273Z,100.00
2022-09-17T08:19:15.554Z,100.00
2022-09-17T08:21:45.088Z,100.00
2022-09-17T08:24:13.293Z,100.00
2022-09-17T08:26:42.046Z,100.00
2022-09-17T08:29:12.040Z,100.00
2022-09-17T08:31:40.991Z,100.00
2022-09-17T08:34:10.324Z,100.00
2022-09-17T08:36:38.988Z,100.00
2022-09-17T08:39:11.144Z,100.00
2022-09-17T08:41:57.249Z,100.00
2022-09-17T08:44:41.048Z,100.00
2022-09-17T08:47:18.420Z,100.00
2022-09-17T08:49:53.858Z,100.00
2022-09-17T08:53:21.301Z,100.00
2022-09-17T08:56:00.309Z,100.00
2022-09-17T08:58:45.722Z,100.00
2022-09-17T09:01:28.036Z,100.00
2022-09-17T09:04:43.702Z,100.00
2022-09-17T09:07:18.733Z,100.00
2022-09-17T09:09:54.052Z,100.00
2022-09-17T09:12:28.063Z,100.00
2022-09-17T09:15:02.704Z,100.00
2022-09-17T09:17:37.563Z,100.00
2022-09-17T09:20:06.939Z,100.00
2022-09-17T09:22:48.925Z,100.00
2022-09-17T09:25:24.131Z,100.00
2022-09-17T09:28:06.876Z,100.00
2022-09-17T09:30:55.765Z,100.00
2022-09-17T09:33:30.538Z,100.00
2022-09-17T09:35:58.832Z,100.00
2022-09-17T09:38:33.925Z,100.00
2022-09-17T09:41:09.751Z,100.00
2022-09-17T09:44:03.195Z,100.00
2022-09-17T09:47:08.183Z,100.00
2022-09-17T09:49:54.784Z,100.00
2022-09-17T09:52:43.887Z,100.00
2022-09-17T09:55:47.974Z,100.00
2022-09-17T09:58:27.581Z,100.00
2022-09-17T10:00:57.161Z,100.00
2022-09-17T10:03:36.508Z,100.00
2022-09-17T10:06:08.997Z,99.83
2022-09-17T10:08:40.353Z,99.80
2022-09-17T10:11:22.638Z,99.84
2022-09-17T10:13:51.105Z,99.44
2022-09-17T10:16:24.540Z,98.18
2022-09-17T10:19:14.124Z,98.03
2022-09-17T10:21:44.116Z,98.67
2022-09-17T10:24:24.041Z,98.52
2022-09-17T10:26:53.075Z,98.75
2022-09-17T10:29:22.536Z,97.81
2022-09-17T10:31:54.343Z,96.71
2022-09-17T10:34:24.859Z,96.60
2022-09-17T10:36:53.575Z,95.61
2022-09-17T10:39:34.595Z,95.97
2022-09-17T10:42:05.026Z,95.24
2022-09-17T10:44:35.439Z,93.81
2022-09-17T10:47:12.166Z,94.29
2022-09-17T10:49:43.762Z,93.82
2022-09-17T10:52:23.130Z,92.60
2022-09-17T10:55:24.527Z,91.70
2022-09-17T10:58:15.714Z,93.68
2022-09-17T11:00:56.732Z,95.12
2022-09-17T11:03:54.336Z,94.50
2022-09-17T11:06:51.356Z,93.86
2022-09-17T11:09:31.143Z,92.31
2022-09-17T11:12:20.369Z,89.88
2022-09-17T11:14:57.323Z,89.13
2022-09-17T11:17:59.755Z,88.76
2022-09-17T11:20:51.844Z,86.06
2022-09-17T11:23:43.907Z,84.58
2022-09-17T11:26:30.727Z,85.37
2022-09-17T11:29:13.738Z,83.78
2022-09-17T11:31:55.916Z,83.71
2022-09-17T11:34:31.048Z,81.04
2022-09-17T11:37:10.221Z,83.75
2022-09-17T11:39:46.308Z,84.27
2022-09-17T11:42:21.589Z,82.89
2022-09-17T11:44:55.338Z,82.95
2022-09-17T11:47:30.188Z,81.73
2022-09-17T11:50:03.970Z,79.47
2022-09-17T11:52:38.043Z,79.08
2022-09-17T11:55:19.664Z,80.08
2022-09-17T11:57:50.109Z,80.27
2022-09-17T12:00:22.654Z,78.81
2022-09-17T12:02:55.323Z,78.14
2022-09-17T12:05:29.855Z,78.08
2022-09-17T12:08:09.306Z,77.21
2022-09-17T12:10:49.677Z,77.75
2022-09-17T12:13:29.386Z,79.11
2022-09-17T12:16:19.364Z,79.63
2022-09-17T12:18:59.051Z,78.18
2022-09-17T12:21:32.574Z,77.80
2022-09-17T12:24:12.954Z,78.31
2022-09-17T12:27:07.741Z,79.07
2022-09-17T12:30:10.454Z,77.97
2022-09-17T12:33:08.127Z,77.79
2022-09-17T12:36:05.190Z,78.16
2022-09-17T12:39:04.943Z,79.51
2022-09-17T12:41:54.611Z,78.17
2022-09-17T12:44:51.271Z,79.02
2022-09-17T12:47:58.138Z,77.27
2022-09-17T12:50:46.524Z,78.29
2022-09-17T12:53:29.595Z,78.22
2022-09-17T12:56:07.733Z,80.05
2022-09-17T12:58:56.582Z,78.65
2022-09-17T13:01:33.530Z,82.97
2022-09-17T13:04:16.105Z,86.91
2022-09-17T13:07:27.682Z,91.43
2022-09-17T13:10:22.273Z,91.59
2022-09-17T13:12:57.914Z,90.14
2022-09-17T13:15:46.484Z,92.11
2022-09-17T13:18:26.641Z,93.36
2022-09-17T13:21:08.148Z,90.76
2022-09-17T13:23:43.503Z,90.22
2022-09-17T13:26:15.870Z,86.54
2022-09-17T13:28:48.299Z,86.99
2022-09-17T13:31:22.646Z,87.49
2022-09-17T13:33:56.641Z,87.66
2022-09-17T13:36:48.209Z,88.72
2022-09-17T13:39:43.203Z,86.33
2022-09-17T13:42:20.061Z,85.67
2022-09-17T13:44:53.849Z,84.91
2022-09-17T13:47:27.547Z,85.29
2022-09-17T13:50:00.556Z,84.58
2022-09-17T13:52:45.902Z,83.76
2022-09-17T13:55:35.263Z,82.09
2022-09-17T13:58:08.544Z,83.17
2022-09-17T14:00:55.309Z,82.30
2022-09-17T14:03:57.117Z,82.80
2022-09-17T14:06:54.955Z,82.42
2022-09-17T14:10:01.932Z,83.63
2022-09-17T14:12:58.234Z,82.75
2022-09-17T14:16:05.657Z,81.97
2022-09-17T14:18:44.543Z,80.50
2022-09-17T14:21:21.448Z,79.66
2022-09-17T14:23:58.028Z,78.29
2022-09-17T14:26:58.685Z,78.64
2022-09-17T14:30:12.294Z,79.33
2022-09-17T14:32:53.624Z,77.45
2022-09-17T14:35:26.205Z,78.32
2022-09-17T14:37:59.505Z,78.63
2022-09-17T14:40:28.978Z,78.71
2022-09-17T14:42:59.515Z,77.83
2022-09-17T14:45:32.883Z,79.50
2022-09-17T14:48:32.320Z,81.20
2022-09-17T14:51:26.372Z,81.04
2022-09-17T14:54:26.227Z,81.63
2022-09-17T14:56:58.856Z,81.39
2022-09-17T14:59:49.365Z,78.85
2022-09-17T15:02:31.148Z,78.04
2022-09-17T15:05:02.054Z,77.43
2022-09-17T15:07:30.942Z,78.18
2022-09-17T15:10:13.459Z,78.34
2022-09-17T15:12:42.017Z,78.38
2022-09-17T15:15:21.419Z,76.20
2022-09-17T15:17:52.105Z,77.26
2022-09-17T15:20:24.463Z,77.82
2022-09-17T15:23:03.792Z,78.01
2022-09-17T15:25:33.298Z,77.91
2022-09-17T15:28:14.573Z,78.05
2022-09-17T15:30:43.016Z,76.53
2022-09-17T15:33:13.524Z,75.83
2022-09-17T15:35:59.530Z,75.92
2022-09-17T15:38:29.805Z,74.55
2022-09-17T15:41:31.119Z,74.05
2022-09-17T15:44:29.914Z,74.84
2022-09-17T15:47:37.533Z,74.64
2022-09-17T15:50:14.856Z,73.16
2022-09-17T15:52:45.308Z,73.62
2022-09-17T15:55:36.765Z,73.88
2022-09-17T15:58:21.853Z,74.29
2022-09-17T16:01:31.079Z,74.04
2022-09-17T16:04:22.030Z,76.70
2022-09-17T16:06:55.469Z,76.41
2022-09-17T16:09:49.886Z,77.57
2022-09-17T16:12:20.433Z,78.60
2022-09-17T16:14:52.098Z,80.05
2022-09-17T16:17:29.082Z,81.62
2022-09-17T16:20:02.492Z,82.94
2022-09-17T16:22:33.711Z,82.54
2022-09-17T16:25:03.444Z,83.13
2022-09-17T16:27:34.314Z,81.46
2022-09-17T16:30:06.235Z,81.95
2022-09-17T16:32:34.447Z,82.63
2022-09-17T16:35:02.829Z,82.62
2022-09-17T16:37:31.028Z,82.97
2022-09-17T16:40:00.926Z,81.61
2022-09-17T16:42:33.410Z,82.81
2022-09-17T16:45:03.538Z,82.59
2022-09-17T16:47:37.178Z,84.12
2022-09-17T16:50:08.039Z,84.23
2022-09-17T16:52:36.354Z,85.97
2022-09-17T16:55:06.730Z,85.74
2022-09-17T16:57:36.462Z,85.79
2022-09-17T17:00:07.182Z,86.88
2022-09-17T17:02:35.479Z,87.37
2022-09-17T17:05:03.965Z,88.22
2022-09-17T17:07:32.968Z,86.90
2022-09-17T17:10:02.083Z,86.69
2022-09-17T17:12:30.982Z,86.05
2022-09-17T17:15:01.259Z,85.54
2022-09-17T17:17:30.984Z,86.36
2022-09-17T17:19:59.319Z,84.74
2022-09-17T17:22:27.957Z,86.27
2022-09-17T17:24:56.667Z,86.84
2022-09-17T17:27:25.034Z,86.97
2022-09-17T17:29:53.340Z,86.66
2022-09-17T17:32:23.144Z,87.94
2022-09-17T17:34:53.215Z,87.78
2022-09-17T17:37:23.258Z,88.00
2022-09-17T17:39:51.534Z,88.23
2022-09-17T17:42:20.059Z,88.51
2022-09-17T17:44:48.444Z,91.11
2022-09-17T17:47:16.667Z,91.80
2022-09-17T17:49:46.212Z,94.72
2022-09-17T17:52:14.450Z,94.89
2022-09-17T17:54:42.616Z,95.10
2022-09-17T17:57:11.424Z,97.24
2022-09-17T17:59:39.675Z,97.43
2022-09-17T18:02:08.147Z,97.35
2022-09-17T18:04:38.010Z,97.30
2022-09-17T18:07:09.608Z,97.37
2022-09-17T18:09:37.880Z,98.35
2022-09-17T18:12:06.988Z,99.39
2022-09-17T18:14:35.185Z,99.84
2022-09-17T18:17:03.398Z,99.77
2022-09-17T18:19:31.756Z,99.42
2022-09-17T18:21:59.922Z,98.91
2022-09-17T18:24:29.519Z,99.51
2022-09-17T18:26:58.172Z,98.56
2022-09-17T18:29:26.393Z,98.52
2022-09-17T18:31:54.837Z,96.58
2022-09-17T18:34:23.141Z,98.11
2022-09-17T18:36:51.575Z,96.84
2022-09-17T18:39:57.096Z,96.62
2022-09-17T18:42:11.096Z,95.82
2022-09-17T18:44:39.338Z,94.68
2022-09-17T18:47:07.748Z,95.78
2022-09-17T18:49:36.028Z,94.62
2022-09-17T18:52:04.473Z,91.27
2022-09-17T18:54:32.662Z,91.65
2022-09-17T18:57:00.921Z,92.48
2022-09-17T18:59:30.484Z,93.13
2022-09-17T19:01:58.957Z,93.32
2022-09-17T19:04:29.396Z,92.72
2022-09-17T19:06:57.633Z,93.28
2022-09-17T19:09:25.876Z,92.29
2022-09-17T19:11:54.081Z,93.39
2022-09-17T19:14:22.281Z,92.66
2022-09-17T19:16:51.789Z,94.08
2022-09-17T19:19:19.982Z,94.32
2022-09-17T19:21:50.623Z,94.84
2022-09-17T19:24:18.886Z,94.44
2022-09-17T19:26:50.800Z,94.89
2022-09-17T19:29:19.194Z,95.28
2022-09-17T19:31:47.564Z,94.70
2022-09-17T19:34:17.199Z,94.31
2022-09-17T19:36:45.378Z,94.76
2022-09-17T19:39:13.974Z,94.94
2022-09-17T19:41:42.179Z,95.09
2022-09-17T19:44:10.423Z,94.50
2022-09-17T19:46:38.783Z,94.63
2022-09-17T19:49:08.709Z,94.32
2022-09-17T19:51:38.703Z,94.71
2022-09-17T19:54:09.508Z,94.63
2022-09-17T19:56:37.694Z,94.73
2022-09-17T19:59:06.013Z,95.17
2022-09-17T20:01:35.084Z,94.73
2022-09-17T20:04:03.779Z,96.24
2022-09-17T20:06:34.743Z,97.09
2022-09-17T20:09:04.913Z,97.06
2022-09-17T20:11:33.951Z,98.36
2022-09-17T20:14:06.584Z,99.89
2022-09-17T20:16:38.380Z,99.40
2022-09-17T20:19:07.982Z,100.00
2022-09-17T20:21:36.536Z,100.00
2022-09-17T20:24:08.190Z,100.00
2022-09-17T20:26:36.825Z,100.00
2022-09-17T20:29:05.697Z,100.00
2022-09-17T20:31:34.054Z,100.00
2022-09-17T20:34:03.954Z,100.00
2022-09-17T20:36:36.020Z,100.00
2022-09-17T20:39:22.495Z,100.00
2022-09-17T20:41:51.714Z,100.00
2022-09-17T20:44:22.812Z,100.00
2022-09-17T20:46:51.136Z,100.00
2022-09-17T20:49:19.383Z,100.00
2022-09-17T20:51:47.558Z,100.00
2022-09-17T20:54:17.178Z,100.00
2022-09-17T20:56:45.404Z,100.00
2022-09-17T20:59:24.999Z,100.00
2022-09-17T21:01:53.697Z,100.00
2022-09-17T21:04:24.157Z,100.00
2022-09-17T21:06:54.432Z,100.00
2022-09-17T21:09:23.986Z,100.00
2022-09-17T21:11:52.175Z,100.00
2022-09-17T21:14:21.100Z,100.00
2022-09-17T21:16:49.306Z,100.00
2022-09-17T21:19:17.545Z,100.00
2022-09-17T21:21:46.074Z,100.00
2022-09-17T21:24:14.312Z,100.00
2022-09-17T21:26:45.806Z,100.00
2022-09-17T21:29:14.189Z,100.00
2022-09-17T21:31:42.473Z,100.00
2022-09-17T21:34:13.504Z,100.00
2022-09-17T21:36:44.385Z,100.00
2022-09-17T21:39:15.621Z,100.00
2022-09-17T21:41:47.783Z,100.00
2022-09-17T21:44:16.236Z,100.00
2022-09-17T21:46:44.632Z,100.00
2022-09-17T21:49:13.835Z,100.00
2022-09-17T21:51:43.777Z,100.00
2022-09-17T21:54:15.795Z,100.00
2022-09-17T21:56:46.236Z,100.00
2022-09-17T21:59:16.303Z,100.00
2022-09-17T22:01:52.170Z,100.00
2022-09-17T22:04:31.791Z,100.00
2022-09-17T22:07:00.908Z,100.00
2022-09-17T22:09:30.260Z,100.00
2022-09-17T22:12:01.235Z,100.00
2022-09-17T22:14:29.474Z,100.00
2022-09-17T22:16:58.833Z,100.00
2022-09-17T22:19:27.806Z,99.90
2022-09-17T22:21:57.047Z,99.42
2022-09-17T22:24:25.820Z,99.30
2022-09-17T22:26:58.259Z,99.67
2022-09-17T22:29:31.534Z,99.96
2022-09-17T22:31:59.841Z,100.00
2022-09-17T22:34:29.697Z,100.00
2022-09-17T22:36:57.922Z,100.00
2022-09-17T22:39:26.170Z,100.00
2022-09-17T22:41:54.727Z,100.00
2022-09-17T22:44:23.003Z,100.00
2022-09-17T22:46:53.369Z,100.00
2022-09-17T22:49:21.590Z,100.00
2022-09-17T22:51:49.787Z,100.00
2022-09-17T22:54:19.741Z,100.00
2022-09-17T22:56:49.322Z,100.00
2022-09-17T22:59:18.923Z,100.00
2022-09-17T23:01:47.652Z,100.00
2022-09-17T23:04:17.317Z,100.00
2022-09-17T23:06:45.625Z,100.00
2022-09-17T23:09:15.301Z,100.00
2022-09-17T23:11:45.157Z,100.00
2022-09-17T23:14:14.610Z,100.00
2022-09-17T23:16:45.591Z,100.00
2022-09-17T23:19:17.243Z,100.00
2022-09-17T23:21:46.276Z,100.00
2022-09-17T23:24:19.257Z,100.00
2022-09-17T23:26:47.808Z,100.00
2022-09-17T23:29:16.436Z,100.00
2022-09-17T23:31:44.644Z,100.00
2022-09-17T23:34:13.066Z,100.00
2022-09-17T23:36:42.644Z,100.00
2022-09-17T23:39:12.753Z,100.00
2022-09-17T23:41:45.419Z,100.00
2022-09-17T23:44:16.049Z,100.00
2022-09-17T23:46:46.214Z,100.00
2022-09-17T23:49:15.474Z,100.00
2022-09-17T23:51:45.047Z,100.00
2022-09-17T23:54:13.303Z,100.00
2022-09-17T23:56:41.558Z,100.00
2022-09-17T23:59:12.240Z,100.00
